Tuesday, January 16, 2018, 12:26 PM EST
Back to Local

KWVL, Waterville, Waterville Robert Lafleur Airport

Location: Waterville, ME, United States Lat: 44.533
Local Time: 12:26 PM EST (17:26 GMT) Lon: -69.683
Time Zone: US/Eastern Elev: 334 ft

Show me the last for .
Show Coded

Time T Td Feel RH Dir Speed Gust Alt SLP Vis Weather Sky Remarks
2018-01-16 11:56 25 9 18 49 230° 6 - 30.42 30.52 10 CLR None
2018-01-16 10:56 25 11 21 54 270° 3 - 30.46 30.56 10 CLR None
2018-01-16 09:56 20 7 13 56 30° 5 - 30.47 30.57 10 CLR None
2018-01-16 08:56 14 8 - 76 - Calm - 30.48 30.58 10 BKN120 None
2018-01-16 07:56 12 6 - 76 - Calm - 30.46 30.57 10 SCT029 OVC110 None
2018-01-16 06:56 12 7 4 79 10° 5 - 30.47 30.58 10 OVC029 1-hr Precip Total: Trace
6-hr Precip Total (7am): 0.00"
6-hr Min Temp (7am): 12.0°F
6-hr Max Temp (7am): 12.0°F
2018-01-16 05:56 12 7 3 79 20° 6 - 30.46 30.57 9 -SN FEW015 OVC029 1-hr Precip Total: Trace
2018-01-16 04:56 12 7 2 79 20° 7 - 30.46 30.56 9 -SN OVC029 1-hr Precip Total: Trace
2018-01-16 03:56 12 7 0 79 20° 9 - 30.46 30.56 8 -SN OVC029 1-hr Precip Total: Trace
6-hr Precip Total (4am): 0.00"
2018-01-16 03:44 12 7 1 78 30° 8 - 30.46 - 9 -SN OVC029 1-hr Precip Total: Trace
2018-01-16 02:56 12 7 -3 79 30° 13 - 30.48 30.59 9 -SN OVC031 1-hr Precip Total: Trace
2018-01-16 01:56 12 8 -3 83 20° 13 - 30.48 30.58 9 -SN OVC033 1-hr Precip Total: Trace
2018-01-16 00:56 12 8 -2 83 20° 12 - 30.48 30.59 9 -SN OVC035 1-hr Precip Total: Trace
6-hr Precip Total (1am): 0.00"
6-hr Min Temp (1am): 12.0°F
6-hr Max Temp (1am): 14.0°F
2018-01-15 23:56 12 8 -2 83 30° 12 - 30.52 30.63 9 -SN OVC035 1-hr Precip Total: Trace
24-hr Min Temp (12am): -0.9°F
24-hr Max Temp (12am): 14.0°F
2018-01-15 22:56 13 9 -1 83 10° 12 - 30.54 30.65 9 -SN OVC035 1-hr Precip Total: Trace
2018-01-15 21:56 13 9 -1 83 20° 12 - 30.55 30.66 5 -SN BR FEW014 OVC033 1-hr Precip Total: Trace
6-hr Precip Total (10pm): 0.00"
2018-01-15 20:56 13 9 -1 83 10° 12 - 30.57 30.68 5 -SN BR OVC031 1-hr Precip Total: Trace
2018-01-15 20:17 14 9 -1 78 30° 14 - 30.57 - 6 -SN OVC031 1-hr Precip Total: Trace
2018-01-15 19:56 14 9 0 79 40° 13 - 30.57 30.68 6 -SN OVC029 1-hr Precip Total: Trace
2018-01-15 18:56 14 8 0 76 30° 12 - 30.60 30.71 6 -SN OVC029 1-hr Precip Total: Trace
6-hr Precip Total (7pm): 0.00"
6-hr Min Temp (7pm): 12.0°F
6-hr Max Temp (7pm): 14.0°F
2018-01-15 18:53 14 9 2 78 40° 9 - 30.60 - 7 -SN OVC029 1-hr Precip Total: Trace
2018-01-15 18:43 14 9 1 78 40° 10 - 30.60 - 9 -SN FEW024 OVC031 1-hr Precip Total: Trace
2018-01-15 17:56 14 8 -1 76 30° 15 - 30.60 30.71 9 -SN OVC022 1-hr Precip Total: Trace
2018-01-15 16:56 14 7 0 73 30° 13 - 30.63 30.74 9 -SN OVC019 1-hr Precip Total: Trace
2018-01-15 15:56 14 6 0 70 10° 12 - 30.63 30.74 9 -SN OVC019 1-hr Precip Total: Trace
6-hr Precip Total (4pm): 0.00"
2018-01-15 14:56 13 5 -2 69 20° 13 - 30.62 30.73 8 -SN BKN017 OVC026 1-hr Precip Total: Trace
2018-01-15 13:56 13 4 -1 66 10° 12 - 30.63 30.74 9 -SN OVC020 1-hr Precip Total: Trace
2018-01-15 13:29 12 1 0 61 20° 9 - 30.64 - 10 BKN018 None
2018-01-15 12:56 12 0 -1 57 30° 10 - 30.66 30.77 10 CLR 6-hr Min Temp (1pm): -0.9°F
6-hr Max Temp (1pm): 14.0°F

Support USWX by starting your Amazon purchase here.